createdAt,value
2023-02-20T00:01:11.335Z,1.40
2023-02-20T00:03:39.293Z,2.60
2023-02-20T00:06:07.589Z,4.00
2023-02-20T00:08:36.927Z,7.80
2023-02-20T00:11:04.860Z,4.00
2023-02-20T00:13:32.813Z,3.60
2023-02-20T00:16:00.984Z,4.40
2023-02-20T00:18:28.827Z,7.40
2023-02-20T00:20:56.726Z,6.60
2023-02-20T00:23:24.837Z,3.00
2023-02-20T00:25:54.174Z,7.40
2023-02-20T00:28:22.040Z,6.40
2023-02-20T00:30:50.200Z,9.20
2023-02-20T00:33:18.108Z,6.80
2023-02-20T00:35:46.057Z,8.20
2023-02-20T00:38:14.021Z,5.20
2023-02-20T00:40:42.221Z,5.60
2023-02-20T00:43:11.485Z,6.00
2023-02-20T00:45:39.419Z,7.00
2023-02-20T00:48:07.452Z,6.00
2023-02-20T00:50:35.357Z,9.60
2023-02-20T00:53:03.442Z,9.00
2023-02-20T00:55:31.637Z,7.80
2023-02-20T00:57:59.600Z,6.60
2023-02-20T01:00:30.237Z,9.00
2023-02-20T01:02:58.552Z,11.80
2023-02-20T01:05:26.670Z,7.00
2023-02-20T01:07:55.275Z,8.60
2023-02-20T01:10:23.212Z,12.00
2023-02-20T01:12:51.185Z,10.80
2023-02-20T01:15:19.265Z,7.00
2023-02-20T01:17:49.129Z,12.00
2023-02-20T01:20:17.354Z,10.80
2023-02-20T01:22:45.269Z,12.80
2023-02-20T01:25:13.190Z,10.00
2023-02-20T01:27:41.088Z,10.60
2023-02-20T01:30:10.203Z,7.00
2023-02-20T01:32:38.316Z,10.00
2023-02-20T01:35:08.439Z,9.60
2023-02-20T01:37:36.431Z,11.20
2023-02-20T01:40:04.452Z,10.40
2023-02-20T01:42:33.418Z,9.40
2023-02-20T01:45:16.786Z,12.20
2023-02-20T01:47:44.736Z,10.40
2023-02-20T01:50:14.396Z,10.00
2023-02-20T01:52:42.325Z,15.00
2023-02-20T01:55:11.966Z,8.60
2023-02-20T01:57:41.613Z,12.80
2023-02-20T02:00:11.101Z,11.20
2023-02-20T02:02:40.619Z,11.40
2023-02-20T02:05:09.345Z,15.00
2023-02-20T02:07:38.709Z,13.00
2023-02-20T02:10:10.439Z,15.60
2023-02-20T02:12:38.449Z,12.00
2023-02-20T02:15:14.246Z,14.60
2023-02-20T02:18:00.498Z,12.60
2023-02-20T02:21:00.235Z,10.80
2023-02-20T02:24:04.470Z,12.00
2023-02-20T02:26:47.763Z,9.40
2023-02-20T02:29:29.654Z,12.00
2023-02-20T02:32:21.495Z,10.00
2023-02-20T02:35:25.095Z,11.20
2023-02-20T02:37:57.670Z,12.60
2023-02-20T02:40:27.676Z,11.60
2023-02-20T02:43:00.113Z,9.60
2023-02-20T02:45:31.071Z,10.40
2023-02-20T02:48:01.525Z,7.80
2023-02-20T02:50:31.078Z,10.00
2023-02-20T02:53:00.442Z,9.60
2023-02-20T02:55:29.524Z,11.20
2023-02-20T02:57:57.500Z,10.00
2023-02-20T03:00:26.387Z,12.80
2023-02-20T03:02:57.445Z,7.00
2023-02-20T03:05:27.134Z,12.40
2023-02-20T03:07:55.989Z,13.40
2023-02-20T03:10:31.905Z,13.80
2023-02-20T03:13:02.820Z,12.40
2023-02-20T03:15:33.927Z,13.00
2023-02-20T03:18:10.748Z,14.00
2023-02-20T03:20:39.515Z,12.60
2023-02-20T03:23:07.692Z,9.80
2023-02-20T03:25:38.058Z,12.40
2023-02-20T03:28:07.677Z,12.00
2023-02-20T03:30:37.099Z,14.60
2023-02-20T03:33:25.325Z,13.40
2023-02-20T03:36:11.254Z,12.00
2023-02-20T03:38:57.455Z,10.00
2023-02-20T03:41:44.869Z,9.00
2023-02-20T03:44:14.480Z,9.00
2023-02-20T03:46:42.635Z,12.60
2023-02-20T03:49:30.345Z,7.80
2023-02-20T03:52:01.074Z,9.80
2023-02-20T03:54:29.322Z,9.60
2023-02-20T03:57:00.879Z,9.60
2023-02-20T03:59:30.627Z,11.60
2023-02-20T04:02:00.981Z,10.60
2023-02-20T04:04:31.955Z,10.80
2023-02-20T04:06:59.835Z,10.60
2023-02-20T04:09:28.740Z,10.40
2023-02-20T04:12:00.787Z,4.80
2023-02-20T04:14:29.058Z,8.20
2023-02-20T04:16:59.928Z,11.80
2023-02-20T04:19:27.789Z,5.00
2023-02-20T04:21:56.575Z,6.60
2023-02-20T04:24:25.423Z,10.00
2023-02-20T04:26:53.640Z,7.00
2023-02-20T04:29:22.907Z,8.20
2023-02-20T04:31:50.865Z,8.60
2023-02-20T04:34:18.789Z,9.60
2023-02-20T04:36:46.731Z,9.20
2023-02-20T04:39:14.666Z,12.00
2023-02-20T04:41:42.884Z,10.80
2023-02-20T04:44:28.659Z,12.00
2023-02-20T04:46:58.014Z,6.40
2023-02-20T04:49:25.938Z,7.80
2023-02-20T04:51:53.854Z,10.00
2023-02-20T04:54:21.867Z,9.40
2023-02-20T04:56:50.143Z,10.00
2023-02-20T04:59:18.078Z,5.20
2023-02-20T05:01:48.266Z,6.60
2023-02-20T05:04:17.791Z,6.80
2023-02-20T05:06:46.428Z,9.00
2023-02-20T05:09:14.573Z,8.60
2023-02-20T05:11:42.562Z,6.60
2023-02-20T05:14:10.554Z,7.40
2023-02-20T05:16:39.163Z,3.60
2023-02-20T05:19:07.167Z,6.40
2023-02-20T05:21:54.415Z,9.60
2023-02-20T05:24:22.372Z,3.80
2023-02-20T05:26:51.812Z,6.40
2023-02-20T05:29:21.183Z,4.00
2023-02-20T05:31:49.536Z,5.40
2023-02-20T05:34:17.519Z,10.00
2023-02-20T05:36:46.844Z,9.00
2023-02-20T05:39:14.802Z,6.60
2023-02-20T05:41:42.700Z,8.00
2023-02-20T05:44:10.741Z,6.40
2023-02-20T05:46:40.663Z,6.60
2023-02-20T05:49:08.677Z,7.40
2023-02-20T05:51:36.818Z,7.40
2023-02-20T05:54:06.373Z,8.60
2023-02-20T05:56:34.348Z,4.20
2023-02-20T05:59:02.438Z,7.40
2023-02-20T06:01:33.736Z,6.20
2023-02-20T06:04:02.500Z,7.80
2023-02-20T06:06:33.795Z,7.40
2023-02-20T06:09:01.710Z,8.20
2023-02-20T06:11:31.104Z,7.80
2023-02-20T06:13:58.978Z,4.00
2023-02-20T06:16:28.497Z,9.60
2023-02-20T06:18:56.558Z,4.00
2023-02-20T06:21:24.606Z,9.80
2023-02-20T06:23:53.410Z,9.00
2023-02-20T06:26:24.140Z,6.60
2023-02-20T06:28:54.451Z,9.60
2023-02-20T06:31:23.382Z,7.80
2023-02-20T06:33:51.382Z,7.80
2023-02-20T06:36:21.190Z,8.20
2023-02-20T06:38:49.298Z,4.40
2023-02-20T06:41:17.462Z,7.80
2023-02-20T06:43:45.416Z,7.40
2023-02-20T06:46:15.154Z,7.00
2023-02-20T06:48:46.535Z,4.20
2023-02-20T06:51:14.559Z,5.80
2023-02-20T06:53:42.601Z,7.00
2023-02-20T06:56:11.610Z,5.80
2023-02-20T06:58:39.677Z,7.00
2023-02-20T07:01:07.969Z,4.40
2023-02-20T07:03:37.378Z,5.60
2023-02-20T07:06:05.937Z,4.00
2023-02-20T07:08:34.589Z,6.60
2023-02-20T07:11:02.840Z,6.00
2023-02-20T07:13:30.666Z,6.40
2023-02-20T07:15:58.612Z,6.40
2023-02-20T07:18:27.314Z,4.00
2023-02-20T07:20:56.800Z,7.20
2023-02-20T07:23:24.850Z,6.00
2023-02-20T07:25:53.059Z,3.20
2023-02-20T07:28:21.496Z,4.00
2023-02-20T07:30:50.073Z,6.00
2023-02-20T07:33:18.423Z,6.00
2023-02-20T07:35:46.462Z,5.20
2023-02-20T07:38:15.759Z,7.00
2023-02-20T07:40:43.761Z,7.00
2023-02-20T07:43:11.697Z,6.20
2023-02-20T07:45:39.932Z,7.00
2023-02-20T07:48:08.135Z,8.20
2023-02-20T07:50:36.062Z,7.40
2023-02-20T07:53:03.946Z,6.80
2023-02-20T07:55:33.321Z,11.20
2023-02-20T07:58:01.235Z,14.80
2023-02-20T08:00:29.320Z,11.80
2023-02-20T08:02:59.502Z,12.20
2023-02-20T08:05:32.816Z,16.40
2023-02-20T08:08:07.057Z,9.00
2023-02-20T08:10:36.620Z,12.00
2023-02-20T08:13:04.541Z,10.40
2023-02-20T08:15:32.711Z,15.20
2023-02-20T08:18:00.910Z,13.00
2023-02-20T08:20:28.806Z,14.20
2023-02-20T08:22:56.710Z,12.40
2023-02-20T08:25:24.747Z,12.60
2023-02-20T08:27:54.198Z,16.00
2023-02-20T08:30:24.809Z,14.80
2023-02-20T08:32:53.007Z,13.20
2023-02-20T08:35:21.318Z,11.40
2023-02-20T08:37:49.317Z,14.20
2023-02-20T08:40:17.707Z,9.00
2023-02-20T08:42:45.996Z,14.20
2023-02-20T08:45:16.701Z,13.80
2023-02-20T08:47:44.655Z,12.80
2023-02-20T08:50:12.644Z,9.20
2023-02-20T08:52:40.663Z,14.80
2023-02-20T08:55:08.984Z,14.60
2023-02-20T08:57:37.292Z,15.80
2023-02-20T09:00:07.020Z,17.60
2023-02-20T09:02:36.416Z,13.00
2023-02-20T09:05:04.847Z,10.20
2023-02-20T09:07:32.739Z,15.00
2023-02-20T09:10:00.845Z,10.40
2023-02-20T09:12:29.182Z,6.00
2023-02-20T09:14:57.127Z,12.20
2023-02-20T09:17:25.075Z,13.00
2023-02-20T09:19:54.513Z,12.20
2023-02-20T09:22:23.878Z,15.20
2023-02-20T09:24:51.879Z,15.80
2023-02-20T09:27:20.273Z,7.00
2023-02-20T09:29:48.207Z,10.00
2023-02-20T09:32:16.284Z,3.80
2023-02-20T09:34:45.134Z,14.00
2023-02-20T09:37:15.558Z,15.40
2023-02-20T09:39:43.519Z,12.80
2023-02-20T09:42:21.792Z,17.60
2023-02-20T09:44:55.119Z,12.00
2023-02-20T09:47:31.890Z,13.40
2023-02-20T09:50:03.085Z,15.00
2023-02-20T09:52:33.511Z,3.60
2023-02-20T09:55:03.842Z,13.60
2023-02-20T09:57:32.806Z,13.20
2023-02-20T10:00:05.291Z,15.60
2023-02-20T10:02:35.827Z,9.60
2023-02-20T10:05:05.040Z,9.60
2023-02-20T10:07:35.261Z,12.60
2023-02-20T10:10:06.634Z,10.40
2023-02-20T10:12:37.088Z,15.20
2023-02-20T10:15:11.091Z,16.00
2023-02-20T10:17:43.333Z,10.40
2023-02-20T10:20:13.265Z,11.80
2023-02-20T10:22:47.018Z,9.60
2023-02-20T10:25:17.203Z,12.40
2023-02-20T10:27:56.044Z,13.00
2023-02-20T10:30:30.127Z,18.20
2023-02-20T10:33:00.451Z,8.20
2023-02-20T10:35:33.694Z,15.40
2023-02-20T10:38:05.673Z,12.20
2023-02-20T10:40:34.755Z,16.80
2023-02-20T10:43:04.109Z,13.40
2023-02-20T10:45:37.109Z,9.40
2023-02-20T10:48:06.460Z,12.80
2023-02-20T10:50:37.947Z,14.60
2023-02-20T10:53:12.164Z,15.60
2023-02-20T10:55:42.030Z,12.80
2023-02-20T10:58:12.171Z,13.40
2023-02-20T11:00:42.051Z,15.80
2023-02-20T11:03:13.250Z,15.80
2023-02-20T11:05:42.660Z,8.80
2023-02-20T11:08:11.945Z,14.20
2023-02-20T11:10:39.838Z,12.00
2023-02-20T11:13:09.852Z,15.00
2023-02-20T11:15:37.768Z,15.20
2023-02-20T11:18:07.054Z,15.80
2023-02-20T11:20:41.484Z,18.60
2023-02-20T11:23:10.259Z,19.00
2023-02-20T11:25:41.899Z,15.00
2023-02-20T11:28:11.401Z,15.00
2023-02-20T11:30:40.206Z,16.00
2023-02-20T11:33:12.306Z,15.80
2023-02-20T11:35:40.661Z,17.20
2023-02-20T11:38:31.000Z,13.00
2023-02-20T11:41:26.417Z,10.80
2023-02-20T11:44:25.386Z,10.20
2023-02-20T11:47:28.026Z,19.20
2023-02-20T11:50:19.657Z,10.80
2023-02-20T11:52:58.246Z,17.60
2023-02-20T11:55:27.786Z,12.00
2023-02-20T11:57:57.264Z,15.20
2023-02-20T12:00:25.650Z,13.20
2023-02-20T12:02:55.647Z,21.80
2023-02-20T12:05:24.019Z,17.20
2023-02-20T12:07:59.437Z,15.20
2023-02-20T12:10:36.198Z,18.60
2023-02-20T12:13:06.045Z,21.00
2023-02-20T12:15:33.934Z,16.40
2023-02-20T12:18:15.781Z,13.00
2023-02-20T12:20:47.305Z,19.40
2023-02-20T12:23:19.820Z,16.00
2023-02-20T12:25:57.054Z,16.60
2023-02-20T12:28:28.502Z,15.60
2023-02-20T12:31:04.026Z,18.00
2023-02-20T12:33:43.950Z,18.00
2023-02-20T12:36:16.378Z,7.40
2023-02-20T12:38:47.779Z,16.20
2023-02-20T12:41:25.388Z,18.60
2023-02-20T12:44:12.902Z,17.00
2023-02-20T12:46:45.233Z,13.40
2023-02-20T12:49:23.137Z,12.60
2023-02-20T12:51:53.049Z,13.60
2023-02-20T12:54:27.412Z,8.20
2023-02-20T12:57:01.129Z,16.20
2023-02-20T12:59:33.127Z,15.00
2023-02-20T13:02:04.720Z,12.20
2023-02-20T13:04:37.123Z,15.60
2023-02-20T13:07:06.817Z,14.60
2023-02-20T13:09:36.521Z,12.40
2023-02-20T13:12:06.347Z,15.20
2023-02-20T13:14:54.947Z,11.20
2023-02-20T13:17:30.835Z,15.60
2023-02-20T13:20:02.097Z,12.00
2023-02-20T13:22:30.056Z,13.00
2023-02-20T13:25:16.847Z,12.20
2023-02-20T13:27:45.403Z,9.20
2023-02-20T13:30:21.672Z,13.60
2023-02-20T13:32:50.285Z,9.20
2023-02-20T13:35:47.810Z,11.20
2023-02-20T13:38:17.168Z,16.00
2023-02-20T13:40:46.045Z,10.80
2023-02-20T13:43:35.047Z,12.00
2023-02-20T13:46:30.519Z,12.40
2023-02-20T13:48:58.473Z,15.00
2023-02-20T13:51:37.045Z,13.00
2023-02-20T13:54:27.887Z,13.00
2023-02-20T13:56:59.776Z,12.40
2023-02-20T13:59:28.347Z,8.60
2023-02-20T14:02:03.939Z,14.40
2023-02-20T14:04:32.298Z,10.80
2023-02-20T14:07:00.313Z,7.00
2023-02-20T14:09:31.740Z,12.00
2023-02-20T14:12:12.568Z,14.00
2023-02-20T14:14:42.467Z,13.60
2023-02-20T14:17:21.938Z,13.80
2023-02-20T14:19:51.804Z,12.00
2023-02-20T14:22:26.994Z,6.60
2023-02-20T14:25:27.535Z,12.80
2023-02-20T14:28:06.159Z,7.80
2023-02-20T14:30:34.130Z,10.40
2023-02-20T14:33:25.441Z,8.80
2023-02-20T14:36:02.084Z,11.60
2023-02-20T14:38:43.586Z,9.80
2023-02-20T14:41:24.496Z,7.00
2023-02-20T14:44:00.415Z,8.60
2023-02-20T14:46:29.579Z,11.80
2023-02-20T14:49:09.993Z,11.20
2023-02-20T14:51:38.106Z,15.40
2023-02-20T14:54:17.622Z,15.00
2023-02-20T14:56:46.133Z,13.60
2023-02-20T14:59:18.284Z,13.80
2023-02-20T15:01:46.329Z,11.20
2023-02-20T15:04:17.260Z,9.40
2023-02-20T15:06:47.752Z,16.00
2023-02-20T15:09:22.724Z,10.80
2023-02-20T15:11:52.706Z,17.60
2023-02-20T15:14:25.009Z,16.80
2023-02-20T15:17:07.952Z,15.20
2023-02-20T15:19:39.395Z,11.60
2023-02-20T15:22:07.897Z,13.80
2023-02-20T15:24:38.381Z,12.40
2023-02-20T15:27:14.747Z,18.60
2023-02-20T15:29:43.444Z,14.60
2023-02-20T15:32:20.788Z,16.40
2023-02-20T15:34:53.541Z,14.20
2023-02-20T15:37:30.214Z,10.60
2023-02-20T15:40:18.104Z,15.80
2023-02-20T15:42:52.103Z,14.80
2023-02-20T15:45:20.561Z,14.00
2023-02-20T15:51:36.828Z,15.80
2023-02-20T15:54:05.612Z,16.40
2023-02-20T15:56:34.691Z,16.00
2023-02-20T15:59:04.736Z,18.00
2023-02-20T16:01:32.862Z,10.40
2023-02-20T16:04:00.840Z,14.20
2023-02-20T16:06:29.114Z,13.60
2023-02-20T16:08:59.438Z,8.60
2023-02-20T16:11:33.472Z,15.00
2023-02-20T16:14:11.089Z,20.60
2023-02-20T16:16:40.464Z,16.80
2023-02-20T16:19:13.278Z,15.00
2023-02-20T16:21:50.060Z,15.40
2023-02-20T16:24:27.761Z,16.80
2023-02-20T16:27:00.289Z,13.40
2023-02-20T16:29:35.377Z,19.80
2023-02-20T16:32:23.350Z,15.40
2023-02-20T16:34:51.484Z,19.00
2023-02-20T16:37:20.099Z,19.20
2023-02-20T16:39:49.519Z,12.00
2023-02-20T16:42:28.554Z,15.20
2023-02-20T16:44:58.755Z,13.60
2023-02-20T16:47:29.033Z,11.60
2023-02-20T16:49:57.909Z,15.80
2023-02-20T16:52:27.080Z,15.80
2023-02-20T16:54:57.227Z,15.60
2023-02-20T16:57:25.193Z,17.00
2023-02-20T16:59:55.464Z,17.20
2023-02-20T17:02:24.746Z,11.20
2023-02-20T17:04:52.808Z,16.00
2023-02-20T17:07:21.122Z,18.80
2023-02-20T17:09:49.081Z,18.40
2023-02-20T17:12:19.449Z,16.40
2023-02-20T17:14:48.003Z,21.40
2023-02-20T17:17:16.120Z,17.60
2023-02-20T17:19:44.235Z,14.60
2023-02-20T17:22:12.549Z,23.40
2023-02-20T17:24:41.387Z,16.60
2023-02-20T17:27:09.388Z,15.00
2023-02-20T17:29:38.997Z,17.80
2023-02-20T17:32:07.730Z,20.20
2023-02-20T17:34:35.696Z,18.40
2023-02-20T17:37:09.350Z,24.80
2023-02-20T17:39:45.452Z,20.40
2023-02-20T17:42:13.820Z,19.40
2023-02-20T17:44:43.463Z,14.80
2023-02-20T17:47:11.678Z,22.00
2023-02-20T17:49:41.539Z,20.60
2023-02-20T17:52:10.037Z,22.80
2023-02-20T17:54:39.547Z,19.80
2023-02-20T17:57:07.448Z,17.80
2023-02-20T17:59:38.894Z,20.40
2023-02-20T18:02:08.681Z,20.40
2023-02-20T18:04:36.715Z,20.60
2023-02-20T18:07:04.725Z,15.00
2023-02-20T18:09:33.326Z,18.80
2023-02-20T18:12:01.380Z,22.80
2023-02-20T18:14:29.567Z,18.00
2023-02-20T18:16:57.808Z,24.80
2023-02-20T18:19:27.157Z,19.40
2023-02-20T18:21:55.254Z,22.00
2023-02-20T18:24:25.277Z,6.20
2023-02-20T18:26:53.316Z,19.80
2023-02-20T18:29:21.407Z,11.80
2023-02-20T18:31:49.602Z,21.60
2023-02-20T18:34:17.886Z,15.60
2023-02-20T18:36:47.197Z,18.60
2023-02-20T18:39:15.188Z,15.40
2023-02-20T18:41:43.060Z,22.60
2023-02-20T18:44:11.249Z,24.80
2023-02-20T18:46:39.854Z,15.40
2023-02-20T18:49:07.910Z,17.20
2023-02-20T18:51:36.851Z,20.80
2023-02-20T18:54:06.807Z,25.80
2023-02-20T18:56:36.419Z,19.60
2023-02-20T18:59:05.087Z,14.20
2023-02-20T19:01:33.937Z,19.20
2023-02-20T19:04:03.101Z,21.80
2023-02-20T19:06:33.140Z,18.60
2023-02-20T19:09:01.318Z,21.40
2023-02-20T19:11:30.825Z,23.40
2023-02-20T19:13:58.934Z,18.20
2023-02-20T19:16:27.510Z,24.60
2023-02-20T19:18:55.497Z,18.00
2023-02-20T19:21:23.555Z,20.80
2023-02-20T19:23:51.488Z,22.00
2023-02-20T19:26:19.477Z,21.80
2023-02-20T19:28:49.780Z,27.40
2023-02-20T19:31:18.232Z,17.00
2023-02-20T19:33:49.522Z,22.00
2023-02-20T19:36:17.617Z,26.60
2023-02-20T19:38:45.889Z,22.60
2023-02-20T19:41:14.578Z,24.60
2023-02-20T19:43:42.728Z,20.80
2023-02-20T19:46:16.757Z,20.00
2023-02-20T19:48:45.287Z,21.20
2023-02-20T19:51:13.314Z,17.80
2023-02-20T19:53:41.252Z,15.60
2023-02-20T19:56:09.413Z,19.00
2023-02-20T19:58:39.991Z,24.60
2023-02-20T20:01:08.160Z,18.40
2023-02-20T20:03:37.545Z,26.20
2023-02-20T20:06:08.527Z,17.80
2023-02-20T20:08:40.196Z,18.60
2023-02-20T20:11:08.305Z,21.40
2023-02-20T20:13:36.739Z,22.00
2023-02-20T20:16:04.842Z,21.60
2023-02-20T20:18:32.794Z,19.80
2023-02-20T20:21:02.409Z,16.00
2023-02-20T20:23:30.372Z,15.40
2023-02-20T20:25:58.274Z,18.20
2023-02-20T20:28:26.582Z,12.60
2023-02-20T20:30:54.659Z,20.00
2023-02-20T20:33:22.737Z,16.60
2023-02-20T20:35:51.000Z,22.80
2023-02-20T20:38:20.292Z,21.00
2023-02-20T20:40:48.508Z,22.40
2023-02-20T20:43:16.844Z,21.20
2023-02-20T20:45:44.771Z,16.00
2023-02-20T20:48:12.842Z,21.40
2023-02-20T20:50:41.073Z,22.00
2023-02-20T20:53:09.507Z,13.40
2023-02-20T20:55:39.340Z,23.20
2023-02-20T20:58:07.646Z,24.80
2023-02-20T21:00:36.493Z,20.60
2023-02-20T21:03:05.278Z,23.00
2023-02-20T21:05:34.306Z,16.40
2023-02-20T21:08:03.001Z,23.60
2023-02-20T21:10:31.195Z,17.80
2023-02-20T21:13:00.792Z,21.00
2023-02-20T21:15:29.681Z,20.60
2023-02-20T21:17:57.874Z,18.20
2023-02-20T21:20:27.115Z,18.00
2023-02-20T21:22:55.577Z,18.60
2023-02-20T21:25:25.240Z,23.20
2023-02-20T21:27:53.703Z,20.80
2023-02-20T21:30:24.409Z,21.20
2023-02-20T21:32:52.839Z,18.40
2023-02-20T21:35:21.790Z,21.80
2023-02-20T21:37:50.258Z,17.00
2023-02-20T21:40:18.508Z,17.60
2023-02-20T21:43:03.851Z,19.80
2023-02-20T21:45:36.492Z,18.00
2023-02-20T21:48:05.560Z,20.20
2023-02-20T21:50:33.829Z,19.20
2023-02-20T21:53:02.471Z,20.20
2023-02-20T21:55:30.541Z,22.60
2023-02-20T21:58:03.568Z,20.40
2023-02-20T22:00:32.234Z,15.60
2023-02-20T22:02:59.287Z,19.40
2023-02-20T22:05:26.462Z,25.60
2023-02-20T22:08:12.065Z,17.20
2023-02-20T22:10:57.741Z,18.20
2023-02-20T22:13:44.008Z,22.20
2023-02-20T22:16:35.854Z,19.20
2023-02-20T22:19:21.355Z,18.00
2023-02-20T22:22:06.469Z,13.40
2023-02-20T22:24:53.881Z,13.40
2023-02-20T22:27:39.383Z,19.60
2023-02-20T22:30:25.568Z,12.60
2023-02-20T22:33:13.030Z,17.60
2023-02-20T22:35:58.598Z,17.00
2023-02-20T22:38:44.720Z,19.60
2023-02-20T22:41:30.028Z,13.60
2023-02-20T22:44:15.781Z,15.40
2023-02-20T22:47:01.218Z,13.80
2023-02-20T22:49:48.448Z,23.00
2023-02-20T22:52:33.899Z,19.40
2023-02-20T22:55:19.569Z,15.00
2023-02-20T22:58:05.154Z,15.80
2023-02-20T23:00:50.989Z,21.60
2023-02-20T23:03:36.958Z,23.80
2023-02-20T23:06:24.546Z,19.40
2023-02-20T23:09:09.609Z,19.60
2023-02-20T23:11:55.962Z,20.20
2023-02-20T23:14:41.601Z,24.00
2023-02-20T23:17:37.213Z,22.80
2023-02-20T23:20:24.072Z,12.20
2023-02-20T23:23:11.191Z,18.00
2023-02-20T23:25:56.639Z,23.80
2023-02-20T23:28:42.186Z,24.60
2023-02-20T23:31:27.688Z,24.00
2023-02-20T23:34:13.124Z,20.80
2023-02-20T23:36:58.635Z,25.40
2023-02-20T23:39:45.543Z,21.60
2023-02-20T23:42:30.867Z,18.60
2023-02-20T23:45:16.739Z,19.80
2023-02-20T23:48:02.140Z,21.00
2023-02-20T23:50:47.905Z,22.00
2023-02-20T23:53:33.217Z,16.80
2023-02-20T23:56:20.506Z,21.00
2023-02-20T23:59:06.370Z,25.00
